Dancewood Sw — 3FGQ2 — position and weather

sailwx.info

Track history (hours):
 
Tides and Currents Weather Stations Pressure Air Temp Water Temp Dewpoint Dewpoint Depression Visibility Wind Speed Wind Dir Waves Ship Positions

Dancewood Sw

Last reported at 2017-Dec-11 11:09 UTC. Time now 2017-Dec-17 17:52 UTC.
Position N 01°19' E 103°19'.

Length 170 m; draft 5.8 m.

Type: Ship. MMSI: 372188000.

Date/timePositionNaut miles runAvg speedWind from/ knotsBaromVisibWave heightAir tempDewpointWater temp
2017-Dec-11 11:09N 01°19' E 103°19'213.9
2017-Dec-11 11:00N 01°17' E 103°21'713.0
2017-Dec-11 10:30N 01°14' E 103°26'612.8
2017-Dec-11 10:00N 01°13' E 103°33'611.9
2017-Dec-11 09:30N 01°12' E 103°39'5 9.4
2017-Dec-11 09:00N 01°15' E 103°42'3 6.9
2017-Dec-11 08:30N 01°18' E 103°44'1 1.4
2017-Dec-11 08:00N 01°18' E 103°43'0 0.1
2017-Dec-11 07:29N 01°18' E 103°43'0 0.0
2017-Dec-11 06:59N 01°18' E 103°43'0 0.0
2017-Dec-11 06:26N 01°18' E 103°43'0 0.0
2017-Dec-11 05:59N 01°18' E 103°43'0 0.0
2017-Dec-11 05:29N 01°18' E 103°43'0 0.0
2017-Dec-11 04:59N 01°18' E 103°43'0 0.0
2017-Dec-11 03:35N 01°18' E 103°43'0 0.0
2017-Dec-11 03:26N 01°18' E 103°43'0 0.0
2017-Dec-11 02:56N 01°18' E 103°43'0 0.0
2017-Dec-11 02:11N 01°18' E 103°43'0 0.0
2017-Dec-11 00:14N 01°18' E 103°43'0 0.0
2017-Dec-10 23:59N 01°18' E 103°43'0 0.0
2017-Dec-10 23:20N 01°18' E 103°43'0 0.0
2017-Dec-10 22:56N 01°18' E 103°43'0 0.0
2017-Dec-10 22:29N 01°18' E 103°43'0 0.0
2017-Dec-10 21:59N 01°18' E 103°43'1 2.4
2017-Dec-10 21:30N 01°18' E 103°44'2 3.9
2017-Dec-10 21:00N 01°16' E 103°45'4 8.4
2017-Dec-10 20:30N 01°13' E 103°48'4 8.2
2017-Dec-10 20:00N 01°13' E 103°52'4 7.1
2017-Dec-10 19:30N 01°14' E 103°55'5 9.1
2017-Dec-10 18:58N 01°16' E 104°00'1 2.4
2017-Dec-10 18:30N 01°16' E 104°01'1 1.3
2017-Dec-10 17:54N 01°16' E 104°02'  
Track history (hours):
 
Tides and Currents Weather Stations Pressure Air Temp Water Temp Dewpoint Dewpoint Depression Visibility Wind Speed Wind Dir Waves Ship Positions

Dancewood Sw

Last reported at 2017-Dec-11 11:09 UTC. Time now 2017-Dec-17 17:52 UTC.
Position N 01°19' E 103°19'.

Length 170 m; draft 5.8 m.

Type: Ship. MMSI: 372188000.

Date/timePositionNaut miles runAvg speedWind from/ knotsBaromVisibWave heightAir tempDewpointWater temp
2017-Dec-11 11:09N 01°19' E 103°19'213.9
2017-Dec-11 11:00N 01°17' E 103°21'713.0
2017-Dec-11 10:30N 01°14' E 103°26'612.8
2017-Dec-11 10:00N 01°13' E 103°33'611.9
2017-Dec-11 09:30N 01°12' E 103°39'5 9.4
2017-Dec-11 09:00N 01°15' E 103°42'3 6.9
2017-Dec-11 08:30N 01°18' E 103°44'1 1.4
2017-Dec-11 08:00N 01°18' E 103°43'0 0.1
2017-Dec-11 07:29N 01°18' E 103°43'0 0.0
2017-Dec-11 06:59N 01°18' E 103°43'0 0.0
2017-Dec-11 06:26N 01°18' E 103°43'0 0.0
2017-Dec-11 05:59N 01°18' E 103°43'0 0.0
2017-Dec-11 05:29N 01°18' E 103°43'0 0.0
2017-Dec-11 04:59N 01°18' E 103°43'0 0.0
2017-Dec-11 03:35N 01°18' E 103°43'0 0.0
2017-Dec-11 03:26N 01°18' E 103°43'0 0.0
2017-Dec-11 02:56N 01°18' E 103°43'0 0.0
2017-Dec-11 02:11N 01°18' E 103°43'0 0.0
2017-Dec-11 00:14N 01°18' E 103°43'0 0.0
2017-Dec-10 23:59N 01°18' E 103°43'0 0.0
2017-Dec-10 23:20N 01°18' E 103°43'0 0.0
2017-Dec-10 22:56N 01°18' E 103°43'0 0.0
2017-Dec-10 22:29N 01°18' E 103°43'0 0.0
2017-Dec-10 21:59N 01°18' E 103°43'1 2.4
2017-Dec-10 21:30N 01°18' E 103°44'2 3.9
2017-Dec-10 21:00N 01°16' E 103°45'4 8.4
2017-Dec-10 20:30N 01°13' E 103°48'4 8.2
2017-Dec-10 20:00N 01°13' E 103°52'4 7.1
2017-Dec-10 19:30N 01°14' E 103°55'5 9.1
2017-Dec-10 18:58N 01°16' E 104°00'1 2.4
2017-Dec-10 18:30N 01°16' E 104°01'1 1.3
2017-Dec-10 17:54N 01°16' E 104°02'  

Dump ship's entire track history